Time;durP1;ratioP1;P1;durP2;ratioP2;P2;SDS_P1;SDS_P2;PMS_P1;PMS_P2;Temp;Humidity;BMP_temperature;BMP_pressure;BME280_temperature;BME280_humidity;BME280_pressure;Samples;Min_cycle;Max_cycle;Signal;HPM_P1;HPM_P2
2021/08/05 00:01:51;;;;;;;14.95;11.00;;;18.60;99.90;;;;;;5010202;28;20212;-73
2021/08/05 00:04:18;;;;;;;13.95;11.30;;;18.50;99.90;;;;;;5013653;28;20611;-72
2021/08/05 00:06:44;;;;;;;12.50;10.63;;;18.50;99.90;;;;;;5013383;28;20246;-72
2021/08/05 00:09:13;;;;;;;17.40;11.38;;;18.50;99.90;;;;;;5006458;28;20232;-71
2021/08/05 00:11:40;;;;;;;15.35;11.18;;;18.50;99.90;;;;;;5007530;28;20297;-70
2021/08/05 00:14:07;;;;;;;14.68;10.57;;;18.50;99.90;;;;;;5009194;28;20200;-70
2021/08/05 00:16:34;;;;;;;15.10;10.55;;;18.50;99.90;;;;;;5007647;28;20200;-74
2021/08/05 00:19:01;;;;;;;17.42;10.88;;;18.40;99.90;;;;;;5009136;28;20282;-75
2021/08/05 00:21:28;;;;;;;14.45;11.02;;;18.40;99.90;;;;;;5004870;28;20213;-71
2021/08/05 00:23:55;;;;;;;19.80;11.75;;;18.40;99.90;;;;;;5011479;28;20726;-72
2021/08/05 00:26:23;;;;;;;17.15;10.80;;;18.40;99.90;;;;;;5012004;28;20761;-72
2021/08/05 00:28:50;;;;;;;14.85;10.57;;;18.30;99.90;;;;;;5011990;28;20212;-73
2021/08/05 00:31:17;;;;;;;15.80;11.10;;;18.30;99.90;;;;;;5006920;28;20263;-73
2021/08/05 00:33:44;;;;;;;14.32;10.57;;;18.30;99.90;;;;;;5008052;28;20208;-73
2021/08/05 00:36:11;;;;;;;15.27;11.30;;;18.20;99.90;;;;;;5008871;28;20289;-75
2021/08/05 00:38:38;;;;;;;13.65;11.20;;;18.20;99.90;;;;;;5010035;28;20692;-74
2021/08/05 00:41:05;;;;;;;15.80;11.57;;;18.10;99.90;;;;;;5008403;28;20272;-75
2021/08/05 00:43:35;;;;;;;17.05;10.50;;;18.10;99.90;;;;;;5009849;28;20203;-72
2021/08/05 00:46:02;;;;;;;15.52;11.18;;;18.10;99.90;;;;;;5007207;28;20239;-75
2021/08/05 00:48:29;;;;;;;15.32;10.95;;;18.00;99.90;;;;;;5010275;28;20573;-73
2021/08/05 00:50:57;;;;;;;15.23;11.07;;;18.00;99.90;;;;;;5008233;28;20220;-74
2021/08/05 00:53:25;;;;;;;15.35;10.80;;;18.00;99.90;;;;;;5009959;28;20204;-73
2021/08/05 00:55:52;;;;;;;12.98;10.45;;;18.00;99.90;;;;;;5010006;28;20687;-73
2021/08/05 00:58:19;;;;;;;13.25;10.90;;;17.90;99.90;;;;;;5005968;28;20230;-74
2021/08/05 01:00:51;;;;;;;13.43;10.43;;;17.90;99.90;;;;;;5010450;28;20219;-74
2021/08/05 01:03:26;;;;;;;12.43;10.35;;;17.90;99.90;;;;;;5011150;28;20295;-73
2021/08/05 01:06:02;;;;;;;24.15;15.88;;;17.90;99.90;;;;;;5010031;28;20203;-75
2021/08/05 01:08:30;;;;;;;14.38;11.23;;;17.80;99.90;;;;;;5003538;28;20200;-74
2021/08/05 01:11:07;;;;;;;14.10;11.10;;;17.80;99.90;;;;;;5009042;28;20236;-72
2021/08/05 01:13:40;;;;;;;13.00;10.40;;;17.80;99.90;;;;;;5005201;28;20200;-73
2021/08/05 01:16:11;;;;;;;12.90;10.40;;;17.70;99.90;;;;;;5007627;28;20204;-73
2021/08/05 01:18:39;;;;;;;14.65;10.30;;;17.70;99.90;;;;;;5007974;28;20258;-71
2021/08/05 01:21:15;;;;;;;16.30;10.55;;;17.70;99.90;;;;;;5004637;28;20288;-72
2021/08/05 01:23:47;;;;;;;14.55;10.10;;;17.70;99.90;;;;;;5009737;28;20211;-70
2021/08/05 01:26:22;;;;;;;13.98;10.60;;;17.60;99.90;;;;;;5011572;28;20231;-72
2021/08/05 01:28:52;;;;;;;14.75;10.52;;;17.60;99.90;;;;;;5000578;28;20219;-73
2021/08/05 01:31:22;;;;;;;13.85;10.07;;;17.60;99.90;;;;;;5008483;28;20248;-75
2021/08/05 01:33:50;;;;;;;13.25;10.57;;;17.60;99.90;;;;;;5005755;28;20205;-76
2021/08/05 01:36:17;;;;;;;12.85;10.52;;;17.60;99.90;;;;;;5008425;28;20270;-73
2021/08/05 01:38:46;;;;;;;13.75;10.75;;;17.50;99.90;;;;;;5006546;28;20271;-73
2021/08/05 01:41:16;;;;;;;12.70;10.75;;;17.50;99.90;;;;;;5019847;28;20292;-73
2021/08/05 01:43:44;;;;;;;13.02;10.23;;;17.50;99.90;;;;;;5007547;28;20204;-72
2021/08/05 01:46:13;;;;;;;13.18;10.50;;;17.50;99.90;;;;;;5004483;28;20291;-74
2021/08/05 01:48:41;;;;;;;14.73;10.75;;;17.40;99.90;;;;;;5005348;28;20268;-72
2021/08/05 01:51:09;;;;;;;12.32;10.43;;;17.40;99.90;;;;;;5007641;28;20290;-75
2021/08/05 01:53:36;;;;;;;15.27;11.18;;;17.40;99.90;;;;;;5007205;28;20211;-77
2021/08/05 01:56:03;;;;;;;12.93;11.52;;;17.30;99.90;;;;;;5007706;28;20214;-75
2021/08/05 01:58:30;;;;;;;11.60;10.18;;;17.40;99.90;;;;;;5010151;28;20231;-74
2021/08/05 02:00:57;;;;;;;12.07;10.38;;;17.30;99.90;;;;;;5010018;28;20193;-75
2021/08/05 02:03:25;;;;;;;13.10;10.70;;;17.30;99.90;;;;;;5010409;28;20731;-75
2021/08/05 02:06:03;;;;;;;14.23;10.35;;;17.20;99.90;;;;;;5012613;28;20259;-75
2021/08/05 02:08:38;;;;;;;12.88;10.60;;;17.20;99.90;;;;;;5009177;28;20213;-75
2021/08/05 02:11:07;;;;;;;12.02;10.73;;;17.20;99.90;;;;;;5010522;28;20228;-74
2021/08/05 02:13:40;;;;;;;11.38;9.85;;;17.20;99.90;;;;;;5010553;28;20287;-76
2021/08/05 02:16:12;;;;;;;14.00;10.50;;;17.20;99.90;;;;;;5010097;28;20211;-75
2021/08/05 02:18:45;;;;;;;12.57;10.32;;;17.20;99.90;;;;;;5013130;28;20205;-73
2021/08/05 02:21:15;;;;;;;12.40;10.15;;;17.10;99.90;;;;;;5015856;28;20247;-74
2021/08/05 02:23:42;;;;;;;12.52;10.07;;;17.10;99.90;;;;;;5010350;28;20215;-75
2021/08/05 02:26:10;;;;;;;11.80;10.32;;;17.10;99.90;;;;;;5011193;28;20263;-73
2021/08/05 02:28:37;;;;;;;13.32;10.25;;;17.10;99.90;;;;;;5011462;28;20209;-74
2021/08/05 02:31:07;;;;;;;14.93;9.60;;;17.00;99.90;;;;;;5011174;28;20606;-75
2021/08/05 02:33:34;;;;;;;10.52;8.98;;;17.00;99.90;;;;;;5011173;28;20278;-76
2021/08/05 02:36:03;;;;;;;12.23;9.80;;;17.00;99.90;;;;;;5014167;28;20231;-74
2021/08/05 02:38:30;;;;;;;11.68;9.52;;;16.90;99.90;;;;;;5013400;28;20205;-72
2021/08/05 02:40:57;;;;;;;13.20;9.63;;;16.90;99.90;;;;;;5012436;28;20211;-70
2021/08/05 02:43:27;;;;;;;14.20;10.10;;;16.90;99.90;;;;;;5018521;28;20704;-72
2021/08/05 02:45:55;;;;;;;12.13;9.63;;;16.80;99.90;;;;;;5011913;28;20228;-76
2021/08/05 02:48:23;;;;;;;11.27;9.30;;;16.80;99.90;;;;;;5010336;28;20613;-73
2021/08/05 02:50:51;;;;;;;12.05;9.82;;;16.80;99.90;;;;;;5011975;28;20742;-74
2021/08/05 02:53:19;;;;;;;12.18;9.48;;;16.80;99.90;;;;;;5009609;28;20200;-73
2021/08/05 02:55:47;;;;;;;14.85;10.00;;;16.70;99.90;;;;;;5009812;28;20259;-73
2021/08/05 02:58:15;;;;;;;12.13;9.85;;;16.70;99.90;;;;;;5011889;28;20196;-75
2021/08/05 03:00:44;;;;;;;12.70;9.63;;;16.70;99.90;;;;;;5010961;28;20259;-75
2021/08/05 03:03:11;;;;;;;15.48;10.00;;;16.70;99.90;;;;;;5010230;28;20287;-75
2021/08/05 03:05:39;;;;;;;12.90;9.27;;;16.70;99.90;;;;;;5007156;28;20208;-74
2021/08/05 03:08:07;;;;;;;16.08;14.02;;;16.70;99.90;;;;;;5013895;28;20211;-71
2021/08/05 03:10:35;;;;;;;14.68;11.70;;;16.60;99.90;;;;;;5013449;28;20282;-74
2021/08/05 03:13:02;;;;;;;15.98;11.70;;;16.60;99.90;;;;;;5007358;28;20255;-72
2021/08/05 03:15:29;;;;;;;13.07;11.40;;;16.60;99.90;;;;;;5012168;28;20200;-73
2021/08/05 03:17:56;;;;;;;14.75;11.52;;;16.60;99.90;;;;;;5011954;28;20255;-75
2021/08/05 03:20:23;;;;;;;13.98;11.68;;;16.50;99.90;;;;;;5011564;28;20286;-75
2021/08/05 03:22:49;;;;;;;12.93;11.27;;;16.50;99.90;;;;;;5008465;28;20205;-72
2021/08/05 03:25:16;;;;;;;11.38;10.18;;;16.50;99.90;;;;;;5010480;28;20247;-74
2021/08/05 03:27:44;;;;;;;12.60;10.95;;;16.50;99.90;;;;;;5014088;28;20737;-73
2021/08/05 03:30:12;;;;;;;16.05;12.05;;;16.50;99.90;;;;;;5008424;28;20746;-74
2021/08/05 03:32:39;;;;;;;12.38;11.07;;;16.40;99.90;;;;;;5013464;28;20739;-75
2021/08/05 03:35:06;;;;;;;12.23;10.75;;;16.40;99.90;;;;;;5013009;28;20204;-74
2021/08/05 03:37:33;;;;;;;12.40;10.93;;;16.40;99.90;;;;;;5009731;28;20263;-74
2021/08/05 03:39:59;;;;;;;11.43;10.23;;;16.40;99.90;;;;;;5009989;28;20204;-75
2021/08/05 03:42:26;;;;;;;11.85;10.38;;;16.40;99.90;;;;;;5012056;28;20262;-73
2021/08/05 03:44:54;;;;;;;14.77;10.57;;;16.40;99.90;;;;;;5010389;28;20268;-75
2021/08/05 03:47:21;;;;;;;12.63;10.30;;;16.30;99.90;;;;;;5010680;28;20204;-76
2021/08/05 03:49:48;;;;;;;11.98;10.25;;;16.30;99.90;;;;;;5010653;28;20201;-77
2021/08/05 03:52:15;;;;;;;15.13;11.27;;;16.30;99.90;;;;;;5008930;28;20290;-76
2021/08/05 03:54:41;;;;;;;14.15;11.10;;;16.30;99.90;;;;;;5008494;28;20259;-74
2021/08/05 03:57:08;;;;;;;12.80;9.90;;;16.20;99.90;;;;;;5011569;28;20196;-76
2021/08/05 03:59:35;;;;;;;12.35;11.05;;;16.30;99.90;;;;;;5009665;28;20723;-75
2021/08/05 04:02:04;;;;;;;12.02;10.23;;;16.20;99.90;;;;;;5009074;28;20196;-75
2021/08/05 04:04:31;;;;;;;12.90;11.43;;;16.20;99.90;;;;;;5010388;28;20251;-73
2021/08/05 04:06:58;;;;;;;15.73;12.27;;;16.20;99.90;;;;;;5008498;28;20664;-76
2021/08/05 04:09:24;;;;;;;10.98;9.50;;;16.20;99.90;;;;;;5009746;28;20236;-77
2021/08/05 04:11:51;;;;;;;13.27;10.73;;;16.20;99.90;;;;;;5009136;28;20274;-76
2021/08/05 04:14:18;;;;;;;14.52;10.75;;;16.10;99.90;;;;;;5007800;28;20212;-77
2021/08/05 04:16:45;;;;;;;12.05;9.93;;;16.10;99.90;;;;;;5011199;28;20263;-74
2021/08/05 04:19:13;;;;;;;13.98;9.55;;;16.10;99.90;;;;;;5011078;28;20570;-74
2021/08/05 04:21:40;;;;;;;13.13;9.95;;;16.10;99.90;;;;;;5006630;28;20246;-75
2021/08/05 04:24:07;;;;;;;18.35;10.85;;;16.10;99.90;;;;;;5006940;28;20204;-73
2021/08/05 04:26:33;;;;;;;16.00;10.88;;;16.10;99.90;;;;;;5005329;28;20251;-73
2021/08/05 04:29:00;;;;;;;17.83;11.65;;;16.00;99.90;;;;;;5003698;28;20258;-72
2021/08/05 04:31:27;;;;;;;18.55;12.20;;;16.10;99.90;;;;;;5006976;28;20282;-72
2021/08/05 04:33:54;;;;;;;16.27;10.93;;;16.00;99.90;;;;;;5007458;28;20209;-70
2021/08/05 04:36:22;;;;;;;14.93;11.48;;;16.00;99.90;;;;;;5007827;28;20251;-72
2021/08/05 04:38:49;;;;;;;14.52;11.90;;;16.00;99.90;;;;;;5011288;28;20241;-72
2021/08/05 04:41:16;;;;;;;16.65;11.20;;;16.00;99.90;;;;;;5009506;28;20211;-72
2021/08/05 04:43:43;;;;;;;18.05;11.80;;;16.00;99.90;;;;;;5006735;28;20255;-72
2021/08/05 04:46:10;;;;;;;19.10;12.02;;;16.00;99.90;;;;;;5009422;28;20246;-75
2021/08/05 04:48:37;;;;;;;16.98;11.35;;;15.90;99.90;;;;;;5007492;28;20247;-75
2021/08/05 04:51:03;;;;;;;17.10;12.50;;;16.00;99.90;;;;;;5004379;28;20208;-73
2021/08/05 04:53:31;;;;;;;16.27;12.80;;;16.00;99.90;;;;;;5008911;28;20932;-73
2021/08/05 04:55:58;;;;;;;18.10;13.88;;;16.00;99.90;;;;;;5010886;28;20255;-76
2021/08/05 04:58:25;;;;;;;18.58;13.30;;;16.00;99.90;;;;;;5008152;28;20263;-70
2021/08/05 05:00:53;;;;;;;18.30;14.30;;;16.00;99.90;;;;;;5008853;28;20278;-75
2021/08/05 05:03:20;;;;;;;20.92;14.13;;;16.00;99.90;;;;;;5007458;28;20197;-72
2021/08/05 05:05:47;;;;;;;19.70;13.48;;;16.00;99.90;;;;;;5008798;28;20204;-71
2021/08/05 05:08:16;;;;;;;15.57;13.30;;;16.00;99.90;;;;;;5008299;28;20255;-71
2021/08/05 05:10:44;;;;;;;17.67;14.57;;;16.00;99.90;;;;;;5010313;28;20270;-74
2021/08/05 05:13:11;;;;;;;17.48;14.55;;;16.00;99.90;;;;;;5007148;28;20224;-72
2021/08/05 05:15:38;;;;;;;18.92;14.80;;;16.00;99.90;;;;;;5006676;28;20209;-71
2021/08/05 05:18:05;;;;;;;19.80;15.85;;;16.00;99.90;;;;;;5004641;28;20260;-74
2021/08/05 05:20:32;;;;;;;20.40;17.50;;;16.00;99.90;;;;;;5005791;28;20574;-73
2021/08/05 05:22:59;;;;;;;27.52;20.10;;;16.00;99.90;;;;;;5009172;28;20205;-73
2021/08/05 05:25:27;;;;;;;35.55;20.42;;;16.00;99.90;;;;;;5009297;28;20212;-73
2021/08/05 05:27:55;;;;;;;27.83;20.98;;;16.00;99.90;;;;;;5009962;28;20212;-73
2021/08/05 05:30:22;;;;;;;30.65;22.48;;;16.00;99.90;;;;;;5006140;28;20239;-73
2021/08/05 05:32:49;;;;;;;28.27;22.67;;;16.10;99.90;;;;;;5004652;28;20582;-72
2021/08/05 05:35:17;;;;;;;32.92;24.65;;;16.10;99.90;;;;;;5010133;28;20310;-71
2021/08/05 05:37:45;;;;;;;26.42;20.90;;;16.20;99.90;;;;;;5008503;28;20715;-71
2021/08/05 05:40:13;;;;;;;27.80;21.20;;;16.20;99.90;;;;;;5010730;28;20212;-74
2021/08/05 05:42:41;;;;;;;29.15;21.48;;;16.30;99.90;;;;;;5010161;28;20226;-71
2021/08/05 05:45:12;;;;;;;27.70;21.05;;;16.30;99.90;;;;;;5012842;28;20215;-70
2021/08/05 05:47:39;;;;;;;29.38;20.55;;;16.30;99.90;;;;;;5007716;28;20250;-71
2021/08/05 05:50:08;;;;;;;29.63;18.35;;;16.40;99.90;;;;;;5012634;28;20204;-72
2021/08/05 05:52:35;;;;;;;25.20;19.50;;;16.40;99.90;;;;;;5007964;28;20280;-70
2021/08/05 05:55:02;;;;;;;27.48;19.77;;;16.40;99.90;;;;;;5011494;28;20246;-73
2021/08/05 05:57:29;;;;;;;26.17;20.95;;;16.40;99.90;;;;;;5012171;28;20232;-71
2021/08/05 05:59:55;;;;;;;26.52;20.30;;;16.50;99.90;;;;;;5011130;28;20205;-72
2021/08/05 06:02:23;;;;;;;24.98;19.95;;;16.40;99.90;;;;;;5005535;28;20197;-75
2021/08/05 06:04:50;;;;;;;25.13;20.70;;;16.40;99.90;;;;;;5014642;28;20239;-72
2021/08/05 06:07:17;;;;;;;26.77;20.95;;;16.40;99.90;;;;;;5010454;28;20208;-73
2021/08/05 06:09:44;;;;;;;30.60;21.58;;;16.50;99.90;;;;;;5013338;28;20244;-75
2021/08/05 06:12:11;;;;;;;26.35;20.75;;;16.50;99.90;;;;;;5012304;28;20224;-73
2021/08/05 06:14:38;;;;;;;29.48;20.77;;;16.50;99.90;;;;;;5012961;28;20664;-74
2021/08/05 06:17:05;;;;;;;29.20;22.23;;;16.60;99.90;;;;;;5009562;28;20208;-76
2021/08/05 06:19:33;;;;;;;30.50;22.98;;;16.60;99.90;;;;;;5012028;28;20204;-73
2021/08/05 06:21:59;;;;;;;30.30;23.30;;;16.60;99.90;;;;;;5010036;28;20197;-72
2021/08/05 06:24:26;;;;;;;29.13;22.80;;;16.60;99.90;;;;;;5011390;28;20935;-74
2021/08/05 06:26:53;;;;;;;31.20;22.05;;;16.70;99.90;;;;;;5007336;28;20209;-74
2021/08/05 06:29:20;;;;;;;33.03;23.83;;;16.70;99.90;;;;;;5010292;28;20197;-73
2021/08/05 06:31:47;;;;;;;27.25;22.15;;;16.80;99.90;;;;;;5008806;28;20212;-73
2021/08/05 06:34:14;;;;;;;26.52;21.88;;;16.80;99.90;;;;;;5009510;28;20205;-74
2021/08/05 06:36:42;;;;;;;24.73;20.98;;;16.80;99.90;;;;;;5007481;28;20290;-72
2021/08/05 06:39:09;;;;;;;29.83;22.65;;;16.80;99.90;;;;;;5007511;28;20605;-71
2021/08/05 06:41:36;;;;;;;31.73;22.90;;;16.90;99.90;;;;;;5008732;28;20196;-72
2021/08/05 06:44:05;;;;;;;30.65;22.80;;;16.90;99.90;;;;;;5010966;28;20267;-71
2021/08/05 06:46:31;;;;;;;29.40;23.95;;;16.90;99.90;;;;;;5007809;28;20263;-72
2021/08/05 06:48:58;;;;;;;30.17;21.77;;;17.00;99.90;;;;;;5010010;28;20243;-67
2021/08/05 06:51:25;;;;;;;31.27;23.33;;;17.00;99.90;;;;;;5009155;28;20254;-69
2021/08/05 06:53:53;;;;;;;26.42;19.85;;;17.10;99.90;;;;;;5010453;28;20239;-70
2021/08/05 06:56:20;;;;;;;26.88;21.52;;;17.20;99.90;;;;;;5013859;28;20197;-69
2021/08/05 06:58:47;;;;;;;23.60;20.98;;;17.20;99.90;;;;;;5009279;28;20294;-71
2021/08/05 07:01:14;;;;;;;27.55;22.13;;;17.30;99.90;;;;;;5011111;28;20838;-69
2021/08/05 07:03:41;;;;;;;30.02;22.70;;;17.30;99.90;;;;;;5010697;28;20303;-69
2021/08/05 07:06:08;;;;;;;26.80;22.70;;;17.40;99.90;;;;;;5013730;28;20196;-70
2021/08/05 07:08:36;;;;;;;24.90;19.38;;;17.40;99.90;;;;;;5010548;28;20208;-70
2021/08/05 07:11:04;;;;;;;20.15;16.92;;;17.50;99.90;;;;;;5013091;28;20232;-70
2021/08/05 07:13:31;;;;;;;34.97;28.27;;;17.50;99.90;;;;;;5012207;28;20275;-69
2021/08/05 07:15:58;;;;;;;27.35;22.80;;;17.50;99.90;;;;;;5014198;28;20558;-70
2021/08/05 07:18:24;;;;;;;25.27;18.95;;;17.60;99.90;;;;;;5011241;28;20200;-71
2021/08/05 07:20:51;;;;;;;25.27;22.05;;;17.60;99.90;;;;;;5014344;28;20484;-71
2021/08/05 07:23:18;;;;;;;24.55;21.83;;;17.70;99.90;;;;;;5011634;28;20263;-70
2021/08/05 07:25:45;;;;;;;26.85;23.02;;;17.70;99.90;;;;;;5011204;28;20606;-70
2021/08/05 07:28:13;;;;;;;28.40;21.15;;;17.80;99.90;;;;;;5010590;28;20212;-70
2021/08/05 07:30:41;;;;;;;27.67;22.88;;;17.80;99.90;;;;;;5011108;28;20268;-68
2021/08/05 07:33:07;;;;;;;21.27;16.20;;;17.80;99.90;;;;;;5012223;28;20255;-69
2021/08/05 07:35:34;;;;;;;20.17;17.02;;;17.90;99.90;;;;;;5009030;28;20247;-68
2021/08/05 07:38:01;;;;;;;24.83;20.70;;;18.00;99.90;;;;;;5011966;28;20203;-68
2021/08/05 07:40:28;;;;;;;22.90;16.65;;;18.00;99.90;;;;;;5010059;28;20204;-71
2021/08/05 07:42:55;;;;;;;24.98;21.50;;;18.10;99.90;;;;;;5011549;28;20196;-70
2021/08/05 07:45:23;;;;;;;28.25;22.90;;;18.20;99.90;;;;;;5010308;28;20279;-71
2021/08/05 07:47:50;;;;;;;25.70;21.15;;;18.20;99.90;;;;;;5008418;28;20238;-71
2021/08/05 07:50:17;;;;;;;27.45;22.13;;;18.30;99.90;;;;;;5010464;28;20672;-70
2021/08/05 07:52:43;;;;;;;25.73;22.20;;;18.30;99.90;;;;;;5008770;28;20354;-73
2021/08/05 07:55:11;;;;;;;28.65;23.48;;;18.40;99.90;;;;;;5010877;28;20217;-69
2021/08/05 07:57:39;;;;;;;25.83;22.55;;;18.40;99.90;;;;;;5009294;28;20197;-69
2021/08/05 08:00:08;;;;;;;26.90;21.60;;;18.40;99.90;;;;;;5010089;28;20893;-67
2021/08/05 08:02:45;;;;;;;23.33;20.00;;;18.50;99.90;;;;;;5009756;28;20208;-70
2021/08/05 08:05:14;;;;;;;25.80;21.63;;;18.50;99.90;;;;;;5011270;28;20208;-70
2021/08/05 08:07:42;;;;;;;23.20;19.55;;;18.60;99.90;;;;;;5006294;28;20291;-70
2021/08/05 08:10:11;;;;;;;24.88;19.35;;;18.70;99.90;;;;;;5005684;28;20232;-68
2021/08/05 08:12:38;;;;;;;16.77;13.05;;;18.80;99.90;;;;;;5009707;28;20272;-67
2021/08/05 08:15:07;;;;;;;13.85;10.73;;;18.80;99.90;;;;;;5007481;28;20283;-71
2021/08/05 08:17:33;;;;;;;12.35;9.68;;;18.90;99.90;;;;;;5007513;28;20711;-70
2021/08/05 08:20:01;;;;;;;12.00;8.85;;;19.10;99.90;;;;;;5010388;28;20271;-68
2021/08/05 08:22:28;;;;;;;8.70;7.65;;;19.20;99.90;;;;;;5010713;28;20200;-72
2021/08/05 08:24:55;;;;;;;12.55;9.15;;;19.30;99.90;;;;;;5008546;28;20208;-67
2021/08/05 08:27:22;;;;;;;9.57;8.07;;;19.40;99.90;;;;;;5009466;28;20223;-70
2021/08/05 08:29:49;;;;;;;9.15;7.75;;;19.70;99.90;;;;;;5009482;28;20209;-68
2021/08/05 08:32:16;;;;;;;12.50;9.15;;;20.00;99.90;;;;;;5009460;28;20677;-69
2021/08/05 08:34:42;;;;;;;14.07;9.73;;;20.30;99.90;;;;;;5008090;28;20216;-71
2021/08/05 08:37:11;;;;;;;10.57;8.02;;;20.60;99.90;;;;;;5008884;28;20660;-70
2021/08/05 08:39:37;;;;;;;14.10;8.80;;;21.00;99.90;;;;;;5007292;28;20204;-70
2021/08/05 08:42:04;;;;;;;10.25;8.15;;;21.30;99.90;;;;;;5010135;28;20200;-73
2021/08/05 08:44:31;;;;;;;10.23;7.57;;;21.50;99.90;;;;;;5006912;28;20200;-71
2021/08/05 08:47:01;;;;;;;7.20;5.90;;;21.70;99.70;;;;;;5011048;28;20212;-70
2021/08/05 08:49:31;;;;;;;11.52;7.72;;;21.90;98.40;;;;;;5009877;28;20196;-70
2021/08/05 08:51:59;;;;;;;11.35;7.95;;;22.20;97.30;;;;;;5006744;28;20248;-69
2021/08/05 08:54:28;;;;;;;7.88;6.22;;;22.50;96.40;;;;;;5009036;28;20282;-69
2021/08/05 08:56:55;;;;;;;6.60;5.18;;;22.70;95.30;;;;;;5009978;28;20204;-71
2021/08/05 08:59:23;;;;;;;8.43;6.78;;;23.00;94.70;;;;;;5007518;28;20216;-72
2021/08/05 09:01:50;;;;;;;10.05;6.53;;;23.20;93.40;;;;;;5003607;28;20243;-69
2021/08/05 09:04:18;;;;;;;7.57;5.70;;;23.40;92.40;;;;;;5010239;28;20196;-69
2021/08/05 09:06:48;;;;;;;9.82;5.63;;;23.60;91.50;;;;;;5011654;28;20676;-69
2021/08/05 09:09:15;;;;;;;5.68;4.68;;;23.80;90.50;;;;;;5006958;28;20257;-71
2021/08/05 09:11:43;;;;;;;7.75;5.07;;;23.90;90.00;;;;;;5004521;28;20190;-70
2021/08/05 09:14:12;;;;;;;6.95;5.85;;;24.20;89.20;;;;;;5003224;28;20252;-70
2021/08/05 09:16:39;;;;;;;7.78;5.60;;;24.40;87.30;;;;;;5010568;28;20197;-70
2021/08/05 09:19:11;;;;;;;8.57;5.75;;;24.60;85.50;;;;;;5010816;28;20195;-72
2021/08/05 09:21:37;;;;;;;6.53;4.97;;;24.70;83.60;;;;;;5005950;28;20209;-70
2021/08/05 09:24:09;;;;;;;7.10;6.22;;;24.90;82.50;;;;;;5009751;28;20209;-72
2021/08/05 09:26:39;;;;;;;7.85;5.90;;;25.10;80.70;;;;;;5010057;28;20204;-70
2021/08/05 09:29:12;;;;;;;7.20;5.43;;;25.20;79.50;;;;;;5009872;28;20310;-70
2021/08/05 09:31:42;;;;;;;7.10;5.75;;;25.40;78.90;;;;;;5011076;28;20715;-70
2021/08/05 09:34:11;;;;;;;7.38;5.70;;;25.50;78.10;;;;;;5009615;28;20280;-70
2021/08/05 09:36:39;;;;;;;7.57;5.65;;;25.50;76.70;;;;;;5005955;28;20215;-72
2021/08/05 09:39:21;;;;;;;8.15;6.25;;;25.60;75.80;;;;;;5012952;28;20200;-70
2021/08/05 09:41:57;;;;;;;8.43;6.30;;;25.70;75.30;;;;;;5011003;28;20251;-69
2021/08/05 09:44:26;;;;;;;8.50;6.10;;;25.80;74.90;;;;;;5007652;28;20187;-69
2021/08/05 09:47:04;;;;;;;7.00;6.30;;;26.00;75.20;;;;;;5008096;28;20204;-69
2021/08/05 09:49:34;;;;;;;7.85;5.78;;;26.70;73.60;;;;;;5011090;28;20218;-72
2021/08/05 09:52:02;;;;;;;10.98;6.47;;;27.60;70.60;;;;;;5006290;28;20254;-72
2021/08/05 09:54:40;;;;;;;9.93;6.20;;;28.30;66.50;;;;;;5010593;28;20226;-70
2021/08/05 09:57:08;;;;;;;6.88;5.90;;;28.70;63.70;;;;;;5007256;28;20208;-70
2021/08/05 09:59:52;;;;;;;8.10;5.80;;;28.80;62.30;;;;;;5010609;28;20258;-71
2021/08/05 10:02:20;;;;;;;6.68;5.43;;;28.80;61.50;;;;;;5007251;28;20208;-70
2021/08/05 10:04:48;;;;;;;9.93;5.35;;;28.80;60.90;;;;;;5013933;28;20273;-70
2021/08/05 10:07:16;;;;;;;8.88;6.20;;;28.70;60.10;;;;;;5007706;28;20200;-70
2021/08/05 10:09:44;;;;;;;6.50;5.32;;;28.70;59.90;;;;;;5007019;28;20240;-72
2021/08/05 10:12:19;;;;;;;8.10;5.90;;;28.60;60.70;;;;;;5008658;28;20211;-71
2021/08/05 10:14:49;;;;;;;8.15;5.78;;;28.70;60.60;;;;;;5010488;28;20225;-73
2021/08/05 10:17:18;;;;;;;11.68;7.00;;;29.10;60.10;;;;;;5008643;28;20695;-70
2021/08/05 10:19:48;;;;;;;9.18;7.93;;;29.80;59.00;;;;;;5010979;28;20696;-69
2021/08/05 10:22:16;;;;;;;10.13;8.20;;;30.30;56.70;;;;;;5011812;28;20204;-72
2021/08/05 10:24:45;;;;;;;8.75;7.32;;;30.60;55.20;;;;;;5005455;28;20204;-70
2021/08/05 10:27:14;;;;;;;9.65;7.75;;;30.70;55.00;;;;;;5009390;28;20192;-71
2021/08/05 10:29:42;;;;;;;9.93;8.70;;;31.10;54.40;;;;;;5009581;28;20246;-70
2021/08/05 10:32:13;;;;;;;14.10;9.05;;;31.30;52.60;;;;;;5013384;28;20681;-70
2021/08/05 10:34:41;;;;;;;10.90;8.35;;;31.10;51.80;;;;;;5009045;28;20311;-71
2021/08/05 10:37:11;;;;;;;9.27;7.88;;;31.10;52.20;;;;;;5011198;28;20199;-69
2021/08/05 10:39:39;;;;;;;8.00;7.18;;;31.40;52.10;;;;;;5011526;28;20204;-70
2021/08/05 10:42:09;;;;;;;9.60;7.38;;;31.90;51.60;;;;;;5006329;28;21005;-69
2021/08/05 10:44:37;;;;;;;11.32;7.53;;;32.10;50.50;;;;;;5012983;28;20201;-69
2021/08/05 10:47:07;;;;;;;11.13;9.40;;;32.10;49.70;;;;;;5008302;28;20203;-69
2021/08/05 10:49:36;;;;;;;13.70;10.65;;;32.10;49.00;;;;;;5012123;28;20606;-70
2021/08/05 10:52:03;;;;;;;8.32;7.35;;;31.90;48.30;;;;;;5011461;28;20274;-70
2021/08/05 10:54:50;;;;;;;13.05;8.27;;;31.60;48.00;;;;;;5008708;28;20969;-71
2021/08/05 10:57:19;;;;;;;8.68;7.05;;;31.40;48.70;;;;;;5014689;28;20212;-69
2021/08/05 11:00:04;;;;;;;8.82;7.93;;;31.70;48.90;;;;;;5012616;28;20267;-72
2021/08/05 11:02:45;;;;;;;9.38;7.50;;;32.20;48.10;;;;;;5011231;28;20200;-70
2021/08/05 11:05:41;;;;;;;10.15;7.75;;;32.70;46.90;;;;;;5010264;28;20221;-69
2021/08/05 11:08:25;;;;;;;11.38;7.30;;;33.10;45.80;;;;;;5016257;28;20322;-70
2021/08/05 11:11:34;;;;;;;10.35;7.25;;;33.10;45.20;;;;;;5011957;28;20250;-69
2021/08/05 11:14:38;;;;;;;10.35;7.63;;;33.30;44.20;;;;;;5008189;28;20219;-70
2021/08/05 11:17:06;;;;;;;9.65;7.38;;;33.40;44.10;;;;;;5010854;28;20669;-71
2021/08/05 11:19:35;;;;;;;8.05;6.20;;;33.70;42.80;;;;;;5012076;28;20222;-72
2021/08/05 11:22:47;;;;;;;8.73;6.60;;;33.90;41.90;;;;;;5013997;28;20200;-70
2021/08/05 11:25:16;;;;;;;7.63;5.80;;;33.90;41.30;;;;;;5015261;28;22170;-70
2021/08/05 11:27:46;;;;;;;6.22;5.38;;;33.60;41.10;;;;;;5008660;28;20208;-70
2021/08/05 11:30:48;;;;;;;8.65;6.78;;;33.30;41.30;;;;;;5014947;28;20294;-71
2021/08/05 11:34:01;;;;;;;8.98;6.15;;;33.00;41.80;;;;;;5005341;28;20200;-70
2021/08/05 11:36:34;;;;;;;7.43;6.40;;;32.60;42.80;;;;;;5005263;28;20266;-69
2021/08/05 11:39:22;;;;;;;10.98;6.25;;;32.30;43.30;;;;;;5007412;28;20204;-70
2021/08/05 11:42:03;;;;;;;21.08;7.50;;;32.20;43.10;;;;;;5010405;28;20322;-66
2021/08/05 11:44:45;;;;;;;8.38;6.88;;;32.00;42.90;;;;;;5011623;28;20207;-69
2021/08/05 11:47:23;;;;;;;5.00;4.38;;;31.90;43.20;;;;;;5013185;28;20736;-69
2021/08/05 11:49:56;;;;;;;7.90;6.22;;;31.80;44.00;;;;;;5003117;28;20576;-69
2021/08/05 11:52:31;;;;;;;8.85;7.57;;;31.90;45.00;;;;;;5005938;28;20266;-69
2021/08/05 11:55:00;;;;;;;10.02;7.25;;;31.80;44.30;;;;;;5003672;28;20227;-69
2021/08/05 11:57:35;;;;;;;13.88;9.02;;;31.60;44.40;;;;;;5010183;28;20282;-69
2021/08/05 12:00:03;;;;;;;10.13;8.80;;;31.30;44.20;;;;;;5009698;28;20204;-68
2021/08/05 12:02:38;;;;;;;11.75;9.32;;;31.00;44.50;;;;;;5007949;28;20557;-69
2021/08/05 12:05:06;;;;;;;11.50;8.90;;;30.70;44.60;;;;;;5010793;28;20262;-68
2021/08/05 12:07:34;;;;;;;12.63;9.23;;;30.50;44.80;;;;;;5008308;28;20209;-68
2021/08/05 12:10:10;;;;;;;10.65;8.23;;;30.30;45.00;;;;;;5013710;28;20235;-71
2021/08/05 12:12:41;;;;;;;9.52;7.35;;;30.20;45.00;;;;;;5009977;28;20310;-71
2021/08/05 12:15:10;;;;;;;7.07;5.90;;;30.00;45.40;;;;;;5007360;28;20687;-71
2021/08/05 12:17:40;;;;;;;8.93;6.53;;;30.00;46.70;;;;;;5013485;28;20258;-71
2021/08/05 12:20:11;;;;;;;10.50;6.15;;;30.20;46.60;;;;;;5011278;28;20290;-71
2021/08/05 12:22:40;;;;;;;8.48;5.78;;;30.40;45.90;;;;;;5009503;28;20210;-70
2021/08/05 12:25:21;;;;;;;8.43;6.15;;;30.80;45.60;;;;;;5008970;28;20255;-70
2021/08/05 12:27:55;;;;;;;8.27;5.70;;;31.10;45.00;;;;;;5009584;28;20200;-70
2021/08/05 12:30:22;;;;;;;8.63;6.63;;;31.30;44.70;;;;;;5010515;28;20311;-70
2021/08/05 12:33:08;;;;;;;11.10;7.50;;;31.50;43.80;;;;;;5012182;28;20203;-71
2021/08/05 12:35:35;;;;;;;8.98;5.32;;;31.80;43.20;;;;;;5011788;28;20281;-71
2021/08/05 12:38:08;;;;;;;7.05;5.20;;;31.70;43.70;;;;;;5010308;28;20265;-70
2021/08/05 12:40:39;;;;;;;5.90;4.43;;;31.60;42.90;;;;;;5010521;28;20215;-69
2021/08/05 12:43:10;;;;;;;7.32;5.25;;;31.40;43.50;;;;;;5005347;28;20206;-69
2021/08/05 12:45:40;;;;;;;6.57;5.82;;;31.30;44.00;;;;;;5007601;28;20271;-71